Time;durP1;ratioP1;P1;durP2;ratioP2;P2;SDS_P1;SDS_P2;PMS_P1;PMS_P2;Temp;Humidity;BMP_temperature;BMP_pressure;BME280_temperature;BME280_humidity;BME280_pressure;Samples;Min_cycle;Max_cycle;Signal;HPM_P1;HPM_P2
2023/12/26 00:02:13;;;;;;;1.95;1.17;;;;;;;;;;5010387;28;20065;-66
2023/12/26 00:04:39;;;;;;;1.52;1.00;;;;;;;;;;5012225;28;20042;-66
2023/12/26 00:07:05;;;;;;;3.40;1.38;;;;;;;;;;5010632;28;20443;-66
2023/12/26 00:09:32;;;;;;;2.65;1.10;;;;;;;;;;5010639;28;20057;-66
2023/12/26 00:11:57;;;;;;;2.08;1.10;;;;;;;;;;5012093;28;20046;-66
2023/12/26 00:14:23;;;;;;;1.60;1.40;;;;;;;;;;5012072;28;20045;-66
2023/12/26 00:16:49;;;;;;;1.73;1.20;;;;;;;;;;5010227;28;20107;-66
2023/12/26 00:19:16;;;;;;;2.35;1.80;;;;;;;;;;5002640;28;20046;-66
2023/12/26 00:21:42;;;;;;;3.63;1.60;;;;;;;;;;4992341;28;20517;-66
2023/12/26 00:24:08;;;;;;;3.78;1.70;;;;;;;;;;4991653;28;20082;-66
2023/12/26 00:26:37;;;;;;;1.63;1.30;;;;;;;;;;5005699;28;20112;-66
2023/12/26 00:29:03;;;;;;;2.53;1.50;;;;;;;;;;5011669;28;20077;-66
2023/12/26 00:31:29;;;;;;;2.63;1.60;;;;;;;;;;5010973;28;20209;-66
2023/12/26 00:33:56;;;;;;;2.53;1.50;;;;;;;;;;5010157;28;20038;-66
2023/12/26 00:36:22;;;;;;;4.45;1.30;;;;;;;;;;5011697;28;20081;-66
2023/12/26 00:38:48;;;;;;;2.08;1.10;;;;;;;;;;5011329;28;20052;-66
2023/12/26 00:41:14;;;;;;;1.65;1.23;;;;;;;;;;5009793;28;20058;-66
2023/12/26 00:43:41;;;;;;;2.95;1.00;;;;;;;;;;5011554;28;20494;-66
2023/12/26 00:46:07;;;;;;;1.27;0.80;;;;;;;;;;5011590;28;20116;-66
2023/12/26 00:48:33;;;;;;;0.70;0.70;;;;;;;;;;5010893;28;20069;-66
2023/12/26 00:50:59;;;;;;;1.25;0.60;;;;;;;;;;5011446;28;20104;-66
2023/12/26 00:53:25;;;;;;;2.67;0.68;;;;;;;;;;5009910;28;20293;-66
2023/12/26 00:55:51;;;;;;;1.10;0.70;;;;;;;;;;5011044;28;20054;-66
2023/12/26 00:58:17;;;;;;;1.55;0.65;;;;;;;;;;5011064;28;20148;-66
2023/12/26 01:00:44;;;;;;;1.85;0.90;;;;;;;;;;5009604;28;20163;-66
2023/12/26 01:03:11;;;;;;;1.83;0.80;;;;;;;;;;5010821;28;20034;-66
2023/12/26 01:05:37;;;;;;;1.23;0.95;;;;;;;;;;5010795;28;20084;-66
2023/12/26 01:08:03;;;;;;;0.98;0.68;;;;;;;;;;5010912;28;20041;-66
2023/12/26 01:10:29;;;;;;;1.67;0.65;;;;;;;;;;5010601;28;20497;-66
2023/12/26 01:12:55;;;;;;;3.22;0.60;;;;;;;;;;5011050;28;20380;-66
2023/12/26 01:15:21;;;;;;;3.33;0.60;;;;;;;;;;5010667;28;20042;-66
2023/12/26 01:17:47;;;;;;;1.15;0.60;;;;;;;;;;5010567;28;20041;-66
2023/12/26 01:20:13;;;;;;;1.75;0.80;;;;;;;;;;4993742;28;20161;-66
2023/12/26 01:22:39;;;;;;;1.50;0.77;;;;;;;;;;4991315;28;20058;-66
2023/12/26 01:25:06;;;;;;;2.17;0.70;;;;;;;;;;4991333;28;20046;-66
2023/12/26 01:27:33;;;;;;;3.30;0.50;;;;;;;;;;5009252;28;20507;-66
2023/12/26 01:30:01;;;;;;;1.20;0.50;;;;;;;;;;5009196;28;20501;-66
2023/12/26 01:32:27;;;;;;;2.58;0.82;;;;;;;;;;5010266;28;20129;-66
2023/12/26 01:34:54;;;;;;;4.60;1.00;;;;;;;;;;5010325;28;20054;-66
2023/12/26 01:37:20;;;;;;;5.10;0.70;;;;;;;;;;5010527;28;20053;-66
2023/12/26 01:39:46;;;;;;;3.70;0.68;;;;;;;;;;5009958;28;20042;-66
2023/12/26 01:42:13;;;;;;;3.85;0.63;;;;;;;;;;5008948;28;20049;-66
2023/12/26 01:44:39;;;;;;;2.13;0.50;;;;;;;;;;5010676;28;20060;-66
2023/12/26 01:47:05;;;;;;;1.45;0.70;;;;;;;;;;5010053;28;20489;-66
2023/12/26 01:49:32;;;;;;;3.05;0.70;;;;;;;;;;5009173;28;20053;-66
2023/12/26 01:51:58;;;;;;;1.75;0.60;;;;;;;;;;5010414;28;20417;-66
2023/12/26 01:54:26;;;;;;;5.20;0.88;;;;;;;;;;5010183;28;20401;-66
2023/12/26 01:56:52;;;;;;;7.43;0.75;;;;;;;;;;5010984;28;20045;-66
2023/12/26 01:59:18;;;;;;;9.32;1.25;;;;;;;;;;5010070;28;20050;-66
2023/12/26 02:01:44;;;;;;;7.50;0.77;;;;;;;;;;5009842;28;20042;-66
2023/12/26 02:04:10;;;;;;;8.35;1.10;;;;;;;;;;5010288;28;20042;-66
2023/12/26 02:06:38;;;;;;;8.48;1.30;;;;;;;;;;5010317;28;20378;-66
2023/12/26 02:09:04;;;;;;;9.27;1.30;;;;;;;;;;5009954;28;20045;-66
2023/12/26 02:11:30;;;;;;;5.85;0.80;;;;;;;;;;5010452;28;20041;-66
2023/12/26 02:13:56;;;;;;;10.32;1.33;;;;;;;;;;5010246;28;20048;-66
2023/12/26 02:16:25;;;;;;;9.85;1.30;;;;;;;;;;5009887;28;20396;-66
2023/12/26 02:18:51;;;;;;;11.82;1.30;;;;;;;;;;5004196;28;20048;-66
2023/12/26 02:21:17;;;;;;;6.03;1.05;;;;;;;;;;4990423;28;20145;-66
2023/12/26 02:23:43;;;;;;;8.65;1.50;;;;;;;;;;4988852;28;20501;-66
2023/12/26 02:26:10;;;;;;;7.88;1.73;;;;;;;;;;4999760;28;20488;-66
2023/12/26 02:28:36;;;;;;;9.70;1.20;;;;;;;;;;5009874;28;20034;-66
2023/12/26 02:31:03;;;;;;;12.50;1.75;;;;;;;;;;5009302;28;20559;-66
2023/12/26 02:33:30;;;;;;;4.97;1.50;;;;;;;;;;5012291;28;20524;-66
2023/12/26 02:35:57;;;;;;;16.05;1.45;;;;;;;;;;5014043;28;20451;-66
2023/12/26 02:38:23;;;;;;;8.82;1.40;;;;;;;;;;5013421;28;20088;-66
2023/12/26 02:40:51;;;;;;;11.25;1.33;;;;;;;;;;5013677;28;20099;-66
2023/12/26 02:43:20;;;;;;;7.03;1.10;;;;;;;;;;5014062;28;20056;-66
2023/12/26 02:45:48;;;;;;;12.27;1.30;;;;;;;;;;5013325;28;20064;-66
2023/12/26 02:48:14;;;;;;;9.35;1.65;;;;;;;;;;5011979;28;20411;-66
2023/12/26 02:50:40;;;;;;;8.95;1.20;;;;;;;;;;5013633;28;20065;-66
2023/12/26 02:53:07;;;;;;;13.38;1.70;;;;;;;;;;5013173;28;20285;-66
2023/12/26 02:55:33;;;;;;;11.13;1.92;;;;;;;;;;5013618;28;20260;-66
2023/12/26 02:57:59;;;;;;;9.88;1.45;;;;;;;;;;5013487;28;20049;-66
2023/12/26 03:00:25;;;;;;;9.55;1.70;;;;;;;;;;5012986;28;20045;-66
2023/12/26 03:02:51;;;;;;;11.00;1.70;;;;;;;;;;5013516;28;20042;-66
2023/12/26 03:05:17;;;;;;;11.45;1.33;;;;;;;;;;5013416;28;20381;-66
2023/12/26 03:07:43;;;;;;;11.73;1.80;;;;;;;;;;5012548;28;20045;-66
2023/12/26 03:10:09;;;;;;;11.13;2.08;;;;;;;;;;5013102;28;20058;-66
2023/12/26 03:12:36;;;;;;;12.85;1.92;;;;;;;;;;5013538;28;20636;-66
2023/12/26 03:15:02;;;;;;;12.63;1.98;;;;;;;;;;5012801;28;20044;-66
2023/12/26 03:17:29;;;;;;;9.50;1.88;;;;;;;;;;5011871;28;20081;-66
2023/12/26 03:19:55;;;;;;;13.73;2.03;;;;;;;;;;4998384;28;20492;-66
2023/12/26 03:22:21;;;;;;;10.50;1.95;;;;;;;;;;4993113;28;20498;-66
2023/12/26 03:24:47;;;;;;;12.20;1.50;;;;;;;;;;4993453;28;20046;-66
2023/12/26 03:27:14;;;;;;;5.38;0.90;;;;;;;;;;5012810;28;20042;-66
2023/12/26 03:29:40;;;;;;;4.60;0.80;;;;;;;;;;5012243;28;20050;-66
2023/12/26 03:32:10;;;;;;;1.73;0.55;;;;;;;;;;5012964;28;20080;-66
2023/12/26 03:34:39;;;;;;;3.65;0.77;;;;;;;;;;5012882;28;20618;-66
2023/12/26 03:37:05;;;;;;;1.77;0.50;;;;;;;;;;5012490;28;20045;-66
2023/12/26 03:39:32;;;;;;;2.38;0.80;;;;;;;;;;5010990;28;20099;-66
2023/12/26 03:41:58;;;;;;;4.43;0.90;;;;;;;;;;5012359;28;20100;-66
2023/12/26 03:44:24;;;;;;;11.63;1.30;;;;;;;;;;5011041;28;20072;-66
2023/12/26 03:46:51;;;;;;;6.47;1.08;;;;;;;;;;5012485;28;20489;-66
2023/12/26 03:49:17;;;;;;;6.30;1.20;;;;;;;;;;5012479;28;20046;-66
2023/12/26 03:51:47;;;;;;;9.75;1.00;;;;;;;;;;5012172;28;20129;-66
2023/12/26 03:54:14;;;;;;;5.13;0.93;;;;;;;;;;5012300;28;20050;-66
2023/12/26 03:56:40;;;;;;;6.55;1.38;;;;;;;;;;5012760;28;20045;-66
2023/12/26 03:59:06;;;;;;;6.40;1.30;;;;;;;;;;5011608;28;20088;-66
2023/12/26 04:01:32;;;;;;;9.10;1.33;;;;;;;;;;5012280;28;20034;-66
2023/12/26 04:03:58;;;;;;;7.57;1.38;;;;;;;;;;5010899;28;20092;-66
2023/12/26 04:06:24;;;;;;;15.43;1.60;;;;;;;;;;5011941;28;20038;-66
2023/12/26 04:08:50;;;;;;;9.27;1.70;;;;;;;;;;5011742;28;20044;-66
2023/12/26 04:11:16;;;;;;;12.57;1.65;;;;;;;;;;5010726;28;20049;-66
2023/12/26 04:13:42;;;;;;;11.65;2.03;;;;;;;;;;5011699;28;20073;-66
2023/12/26 04:16:08;;;;;;;10.90;1.27;;;;;;;;;;5012158;28;20115;-66
2023/12/26 04:18:34;;;;;;;14.55;1.67;;;;;;;;;;5008417;28;20374;-66
2023/12/26 04:21:01;;;;;;;14.88;1.95;;;;;;;;;;4990455;28;20349;-66
2023/12/26 04:23:27;;;;;;;11.73;1.85;;;;;;;;;;4992567;28;20034;-66
2023/12/26 04:25:53;;;;;;;17.65;2.00;;;;;;;;;;5000664;28;20041;-66
2023/12/26 04:28:19;;;;;;;15.63;2.17;;;;;;;;;;5011299;28;20038;-66
2023/12/26 04:30:47;;;;;;;15.88;2.00;;;;;;;;;;5011805;28;20054;-66
2023/12/26 04:33:13;;;;;;;16.45;2.00;;;;;;;;;;5010468;28;20530;-66
2023/12/26 04:35:39;;;;;;;15.52;2.00;;;;;;;;;;5011490;28;20038;-66
2023/12/26 04:38:05;;;;;;;14.57;2.25;;;;;;;;;;5011320;28;20045;-66
2023/12/26 04:40:31;;;;;;;16.40;2.38;;;;;;;;;;5011424;28;20474;-66
2023/12/26 04:43:02;;;;;;;14.20;1.92;;;;;;;;;;5011622;28;20038;-66
2023/12/26 04:45:28;;;;;;;12.48;2.20;;;;;;;;;;5011371;28;20042;-66
2023/12/26 04:47:54;;;;;;;15.05;2.50;;;;;;;;;;5011294;28;20038;-66
2023/12/26 04:50:20;;;;;;;14.45;2.30;;;;;;;;;;5011063;28;20050;-66
2023/12/26 04:52:46;;;;;;;16.63;2.60;;;;;;;;;;5011173;28;20050;-66
2023/12/26 04:55:13;;;;;;;18.23;3.05;;;;;;;;;;5010819;28;20064;-66
2023/12/26 04:57:39;;;;;;;14.57;2.03;;;;;;;;;;5011429;28;20081;-67
2023/12/26 05:00:05;;;;;;;13.43;2.42;;;;;;;;;;5010670;28;20053;-67
2023/12/26 05:02:31;;;;;;;14.90;2.35;;;;;;;;;;5011342;28;20042;-67
2023/12/26 05:04:57;;;;;;;9.10;1.75;;;;;;;;;;5011151;28;20059;-67
2023/12/26 05:07:23;;;;;;;16.85;2.50;;;;;;;;;;5010615;28;20068;-67
2023/12/26 05:09:49;;;;;;;14.68;1.98;;;;;;;;;;5011005;28;20377;-67
2023/12/26 05:12:15;;;;;;;12.70;1.98;;;;;;;;;;5011080;28;20401;-67
2023/12/26 05:14:41;;;;;;;12.88;2.08;;;;;;;;;;5009094;28;20046;-67
2023/12/26 05:17:07;;;;;;;9.15;1.83;;;;;;;;;;5010862;28;20045;-67
2023/12/26 05:19:33;;;;;;;15.05;1.55;;;;;;;;;;4999313;28;20089;-67
2023/12/26 05:21:59;;;;;;;13.55;1.90;;;;;;;;;;4991199;28;20034;-67
2023/12/26 05:24:25;;;;;;;10.75;2.17;;;;;;;;;;4991522;28;20129;-67
2023/12/26 05:26:51;;;;;;;10.00;2.13;;;;;;;;;;5007248;28;20120;-67
2023/12/26 05:29:17;;;;;;;12.15;1.95;;;;;;;;;;5010149;28;20038;-67
2023/12/26 05:31:43;;;;;;;14.68;2.50;;;;;;;;;;5010769;28;20068;-67
2023/12/26 05:34:09;;;;;;;9.57;1.77;;;;;;;;;;5009124;28;20443;-67
2023/12/26 05:36:36;;;;;;;11.23;1.90;;;;;;;;;;5010224;28;20516;-67
2023/12/26 05:39:03;;;;;;;13.73;2.08;;;;;;;;;;5010670;28;20041;-67
2023/12/26 05:41:29;;;;;;;9.75;2.10;;;;;;;;;;5010316;28;20061;-67
2023/12/26 05:43:55;;;;;;;10.05;2.05;;;;;;;;;;5010189;28;20038;-67
2023/12/26 05:46:23;;;;;;;11.32;1.70;;;;;;;;;;5008910;28;20400;-67
2023/12/26 05:48:49;;;;;;;12.23;1.80;;;;;;;;;;5010212;28;20046;-67
2023/12/26 05:51:15;;;;;;;11.07;1.58;;;;;;;;;;5008729;28;20077;-67
2023/12/26 05:53:41;;;;;;;10.00;1.73;;;;;;;;;;5010344;28;20057;-67
2023/12/26 05:56:07;;;;;;;18.27;2.25;;;;;;;;;;5010199;28;20056;-67
2023/12/26 05:58:34;;;;;;;9.85;2.00;;;;;;;;;;5009743;28;20056;-67
2023/12/26 06:01:01;;;;;;;8.60;1.88;;;;;;;;;;5010090;28;20129;-67
2023/12/26 06:03:27;;;;;;;10.57;1.40;;;;;;;;;;5010227;28;20183;-67
2023/12/26 06:05:55;;;;;;;13.40;2.45;;;;;;;;;;5010034;28;20487;-67
2023/12/26 06:08:21;;;;;;;11.13;1.95;;;;;;;;;;5007166;28;20030;-67
2023/12/26 06:10:47;;;;;;;7.20;1.83;;;;;;;;;;5011686;28;20057;-67
2023/12/26 06:13:13;;;;;;;13.55;2.20;;;;;;;;;;5011035;28;20125;-67
2023/12/26 06:15:42;;;;;;;9.60;1.85;;;;;;;;;;5010033;28;20125;-67
2023/12/26 06:18:08;;;;;;;8.70;1.35;;;;;;;;;;5010006;28;20052;-67
2023/12/26 06:20:35;;;;;;;13.57;1.75;;;;;;;;;;4988445;28;20046;-67
2023/12/26 06:23:01;;;;;;;11.55;1.88;;;;;;;;;;4990312;28;20068;-67
2023/12/26 06:25:27;;;;;;;12.70;1.95;;;;;;;;;;4995240;28;20038;-67
2023/12/26 06:27:53;;;;;;;12.38;2.10;;;;;;;;;;5008280;28;20284;-67
2023/12/26 06:30:19;;;;;;;13.18;1.75;;;;;;;;;;5009562;28;20112;-67
2023/12/26 06:32:45;;;;;;;13.27;1.90;;;;;;;;;;5008468;28;20107;-67
2023/12/26 06:35:11;;;;;;;19.50;1.83;;;;;;;;;;5009535;28;20096;-67
2023/12/26 06:37:37;;;;;;;12.02;1.90;;;;;;;;;;5009958;28;20084;-67
2023/12/26 06:40:04;;;;;;;12.98;1.90;;;;;;;;;;5009564;28;20530;-67
2023/12/26 06:42:30;;;;;;;10.05;1.92;;;;;;;;;;5009425;28;20096;-67
2023/12/26 06:44:56;;;;;;;8.95;1.60;;;;;;;;;;5009782;28;20362;-67
2023/12/26 06:47:22;;;;;;;14.65;2.45;;;;;;;;;;5008434;28;20095;-67
2023/12/26 06:49:50;;;;;;;11.30;1.90;;;;;;;;;;5009199;28;20041;-67
2023/12/26 06:52:16;;;;;;;11.90;2.50;;;;;;;;;;5009781;28;20045;-67
2023/12/26 06:54:42;;;;;;;12.20;1.92;;;;;;;;;;5009580;28;20056;-67
2023/12/26 06:57:15;;;;;;;11.20;2.22;;;;;;;;;;5009367;28;20053;-67
2023/12/26 06:59:42;;;;;;;12.98;2.10;;;;;;;;;;5009409;28;20551;-67
2023/12/26 07:02:08;;;;;;;16.15;2.25;;;;;;;;;;5008115;28;20038;-67
2023/12/26 07:04:34;;;;;;;13.93;2.15;;;;;;;;;;5009288;28;20540;-67
2023/12/26 07:07:00;;;;;;;17.63;1.77;;;;;;;;;;5007975;28;20062;-67
2023/12/26 07:09:26;;;;;;;18.23;2.83;;;;;;;;;;5009360;28;20038;-67
2023/12/26 07:11:52;;;;;;;8.73;2.28;;;;;;;;;;5009182;28;20034;-67
2023/12/26 07:14:18;;;;;;;15.45;1.80;;;;;;;;;;5009287;28;20042;-68
2023/12/26 07:16:44;;;;;;;18.35;2.67;;;;;;;;;;5009352;28;20038;-67
2023/12/26 07:19:10;;;;;;;12.05;1.85;;;;;;;;;;5010519;28;20045;-67
2023/12/26 07:21:37;;;;;;;11.82;2.25;;;;;;;;;;5013218;28;20201;-67
2023/12/26 07:24:03;;;;;;;12.18;2.22;;;;;;;;;;5013024;28;20053;-67
2023/12/26 07:26:29;;;;;;;13.63;2.35;;;;;;;;;;4999002;28;20046;-67
2023/12/26 07:28:55;;;;;;;13.65;1.92;;;;;;;;;;4993408;28;20114;-67
2023/12/26 07:31:22;;;;;;;20.98;2.78;;;;;;;;;;4992930;28;20146;-67
2023/12/26 07:33:51;;;;;;;14.30;2.17;;;;;;;;;;4993025;28;20054;-67
2023/12/26 07:36:17;;;;;;;16.23;2.70;;;;;;;;;;4993203;28;20078;-67
2023/12/26 07:38:43;;;;;;;19.48;2.80;;;;;;;;;;4993120;28;20053;-67
2023/12/26 07:41:09;;;;;;;12.18;2.25;;;;;;;;;;4992690;28;20093;-67
2023/12/26 07:43:35;;;;;;;10.68;2.65;;;;;;;;;;4993168;28;20046;-67
2023/12/26 07:46:01;;;;;;;16.85;2.30;;;;;;;;;;4991526;28;20046;-67
2023/12/26 07:48:27;;;;;;;12.93;2.60;;;;;;;;;;4990987;28;20046;-67
2023/12/26 07:50:53;;;;;;;16.38;2.03;;;;;;;;;;4991606;28;20466;-67
2023/12/26 07:53:20;;;;;;;13.27;1.92;;;;;;;;;;4991538;28;20294;-67
2023/12/26 07:55:46;;;;;;;19.60;2.53;;;;;;;;;;4992273;28;20050;-67
2023/12/26 07:58:12;;;;;;;14.15;2.38;;;;;;;;;;4991411;28;20054;-67
2023/12/26 08:00:38;;;;;;;12.80;2.00;;;;;;;;;;4992713;28;20401;-67
2023/12/26 08:03:04;;;;;;;14.00;2.25;;;;;;;;;;4992386;28;20035;-67
2023/12/26 08:05:30;;;;;;;14.82;2.22;;;;;;;;;;4992787;28;20556;-67
2023/12/26 08:07:56;;;;;;;15.35;2.55;;;;;;;;;;4991150;28;20293;-67
2023/12/26 08:10:25;;;;;;;17.15;2.05;;;;;;;;;;4992051;28;20052;-67
2023/12/26 08:12:51;;;;;;;14.07;2.55;;;;;;;;;;4992678;28;20460;-67
2023/12/26 08:15:17;;;;;;;15.35;2.15;;;;;;;;;;4992605;28;20050;-67
2023/12/26 08:17:43;;;;;;;14.32;2.10;;;;;;;;;;4992096;28;20038;-67
2023/12/26 08:20:10;;;;;;;16.38;2.70;;;;;;;;;;5008457;28;20042;-67
2023/12/26 08:22:36;;;;;;;12.45;2.30;;;;;;;;;;5011974;28;20092;-67
2023/12/26 08:25:02;;;;;;;15.27;2.42;;;;;;;;;;5009850;28;20073;-67
2023/12/26 08:27:28;;;;;;;18.17;2.40;;;;;;;;;;4992226;28;20035;-67
2023/12/26 08:29:54;;;;;;;19.13;2.38;;;;;;;;;;4990135;28;20061;-67
2023/12/26 08:32:20;;;;;;;12.95;2.67;;;;;;;;;;4991854;28;20129;-67
2023/12/26 08:34:46;;;;;;;23.15;2.35;;;;;;;;;;4991848;28;20176;-67
2023/12/26 08:37:12;;;;;;;10.73;2.33;;;;;;;;;;4992081;28;20539;-67
2023/12/26 08:39:39;;;;;;;17.45;2.05;;;;;;;;;;4991836;28;20042;-67
2023/12/26 08:42:05;;;;;;;15.35;2.40;;;;;;;;;;4991954;28;20352;-67
2023/12/26 08:44:31;;;;;;;17.25;2.47;;;;;;;;;;4992032;28;20039;-67
2023/12/26 08:46:57;;;;;;;15.55;2.75;;;;;;;;;;4991869;28;20049;-67
2023/12/26 08:49:23;;;;;;;18.63;2.30;;;;;;;;;;4991474;28;20477;-67
2023/12/26 08:51:49;;;;;;;13.85;2.78;;;;;;;;;;4990580;28;20043;-67
2023/12/26 08:54:15;;;;;;;19.58;2.83;;;;;;;;;;4991780;28;20044;-67
2023/12/26 08:56:41;;;;;;;19.02;2.55;;;;;;;;;;4991418;28;20503;-67
2023/12/26 08:59:08;;;;;;;19.63;2.70;;;;;;;;;;4990139;28;20048;-67
2023/12/26 09:01:36;;;;;;;12.90;2.78;;;;;;;;;;4991593;28;20046;-67
2023/12/26 09:04:07;;;;;;;18.92;2.45;;;;;;;;;;4991457;28;20034;-67
2023/12/26 09:06:34;;;;;;;15.73;2.92;;;;;;;;;;4990128;28;20046;-67
2023/12/26 09:09:00;;;;;;;33.88;3.47;;;;;;;;;;4991640;28;20211;-67
2023/12/26 09:11:26;;;;;;;18.25;2.90;;;;;;;;;;4991469;28;20048;-67
2023/12/26 09:13:52;;;;;;;16.40;2.85;;;;;;;;;;4991461;28;20052;-67
2023/12/26 09:16:18;;;;;;;13.60;2.45;;;;;;;;;;4991477;28;20378;-67
2023/12/26 09:18:44;;;;;;;21.90;3.58;;;;;;;;;;4995261;28;20045;-67
2023/12/26 09:21:10;;;;;;;18.88;3.30;;;;;;;;;;5010810;28;20405;-67
2023/12/26 09:23:36;;;;;;;15.80;2.35;;;;;;;;;;5009626;28;20539;-67
2023/12/26 09:26:03;;;;;;;11.07;2.38;;;;;;;;;;4999345;28;20061;-67
2023/12/26 09:28:29;;;;;;;20.25;3.20;;;;;;;;;;4991044;28;20073;-67
2023/12/26 09:30:56;;;;;;;15.23;2.42;;;;;;;;;;4990853;28;20065;-67
2023/12/26 09:33:22;;;;;;;25.45;3.58;;;;;;;;;;4989198;28;20338;-67
2023/12/26 09:35:48;;;;;;;14.35;2.78;;;;;;;;;;4991056;28;20061;-67
2023/12/26 09:38:14;;;;;;;17.10;3.30;;;;;;;;;;4990858;28;20038;-67
2023/12/26 09:40:40;;;;;;;14.90;2.60;;;;;;;;;;4990478;28;20229;-67
2023/12/26 09:43:07;;;;;;;20.92;3.28;;;;;;;;;;4988589;28;20405;-67
2023/12/26 09:45:33;;;;;;;17.70;2.95;;;;;;;;;;4991060;28;20434;-67
2023/12/26 09:47:59;;;;;;;19.50;2.60;;;;;;;;;;4989289;28;20503;-67
2023/12/26 09:50:25;;;;;;;15.02;3.05;;;;;;;;;;4990661;28;20050;-67
2023/12/26 09:52:53;;;;;;;13.18;2.50;;;;;;;;;;4989267;28;20054;-67
2023/12/26 09:55:20;;;;;;;14.30;2.75;;;;;;;;;;4990351;28;20132;-67
2023/12/26 09:57:46;;;;;;;16.77;3.13;;;;;;;;;;4990495;28;20105;-67
2023/12/26 10:00:12;;;;;;;15.93;2.97;;;;;;;;;;4990577;28;20052;-67
2023/12/26 10:02:39;;;;;;;16.85;2.90;;;;;;;;;;4988743;28;20042;-68
2023/12/26 10:05:05;;;;;;;18.13;2.30;;;;;;;;;;4989538;28;20042;-68
2023/12/26 10:07:31;;;;;;;15.63;2.28;;;;;;;;;;4990605;28;20081;-67
2023/12/26 10:09:57;;;;;;;17.88;2.88;;;;;;;;;;4990414;28;20049;-67
2023/12/26 10:12:30;;;;;;;19.75;3.10;;;;;;;;;;4990341;28;20053;-67
2023/12/26 10:15:00;;;;;;;18.70;2.95;;;;;;;;;;4990229;28;20089;-67
2023/12/26 10:17:26;;;;;;;19.88;3.08;;;;;;;;;;4990206;28;20130;-67
2023/12/26 10:19:57;;;;;;;16.73;2.63;;;;;;;;;;5002874;28;20485;-67
2023/12/26 10:22:23;;;;;;;17.20;2.55;;;;;;;;;;5010079;28;20048;-67
2023/12/26 10:24:49;;;;;;;18.05;2.53;;;;;;;;;;5009602;28;20436;-67
2023/12/26 10:27:15;;;;;;;15.85;2.92;;;;;;;;;;4990376;28;20042;-67
2023/12/26 10:29:41;;;;;;;15.48;2.83;;;;;;;;;;4990050;28;20390;-67
2023/12/26 10:32:07;;;;;;;19.20;3.15;;;;;;;;;;4988515;28;20449;-67
2023/12/26 10:34:34;;;;;;;14.93;2.17;;;;;;;;;;4990358;28;20531;-67
2023/12/26 10:37:00;;;;;;;20.50;2.67;;;;;;;;;;4990409;28;20065;-67
2023/12/26 10:39:28;;;;;;;19.63;2.58;;;;;;;;;;4988161;28;20046;-67
2023/12/26 10:41:54;;;;;;;16.20;2.67;;;;;;;;;;4990223;28;20042;-67
2023/12/26 10:44:20;;;;;;;13.75;3.30;;;;;;;;;;4990216;28;20038;-67
2023/12/26 10:46:49;;;;;;;17.90;2.53;;;;;;;;;;4988305;28;20078;-67
2023/12/26 10:49:24;;;;;;;18.40;3.08;;;;;;;;;;4990067;28;20046;-67
2023/12/26 10:51:52;;;;;;;16.15;2.70;;;;;;;;;;4990202;28;20086;-67
2023/12/26 10:54:25;;;;;;;16.13;2.13;;;;;;;;;;4991635;28;20039;-67
2023/12/26 10:56:52;;;;;;;22.42;3.67;;;;;;;;;;4994027;28;20035;-67
2023/12/26 13:53:53;;;;;;;17.40;2.15;;;;;;;;;;5010462;28;20492;-67
2023/12/26 13:56:38;;;;;;;13.60;2.03;;;;;;;;;;5010375;28;20045;-67
2023/12/26 13:59:23;;;;;;;5.47;1.20;;;;;;;;;;5008809;28;20060;-67
2023/12/26 14:02:07;;;;;;;8.70;1.55;;;;;;;;;;5010197;28;20093;-67
2023/12/26 14:04:52;;;;;;;7.35;1.20;;;;;;;;;;4992518;28;20571;-67
2023/12/26 14:07:37;;;;;;;9.27;1.13;;;;;;;;;;5010050;28;20045;-67
2023/12/26 14:10:22;;;;;;;5.53;1.08;;;;;;;;;;5010114;28;20041;-67
2023/12/26 14:13:06;;;;;;;7.85;0.88;;;;;;;;;;5010042;28;20046;-67
2023/12/26 14:15:51;;;;;;;8.38;0.98;;;;;;;;;;5010021;28;20096;-67
2023/12/26 14:18:36;;;;;;;6.13;1.13;;;;;;;;;;5008957;28;20038;-67
2023/12/26 14:21:20;;;;;;;6.00;0.80;;;;;;;;;;4989675;28;20045;-67
2023/12/26 14:24:05;;;;;;;6.97;1.20;;;;;;;;;;4990522;28;20038;-67
2023/12/26 14:26:49;;;;;;;5.78;1.02;;;;;;;;;;5003718;28;20092;-67
2023/12/26 14:29:34;;;;;;;7.25;0.95;;;;;;;;;;5013706;28;20046;-67
2023/12/26 14:32:19;;;;;;;7.65;1.00;;;;;;;;;;4977530;28;20121;-67
2023/12/26 14:35:03;;;;;;;6.97;0.88;;;;;;;;;;4977454;28;20038;-67
2023/12/26 14:37:48;;;;;;;9.32;1.15;;;;;;;;;;4977362;28;20054;-67
2023/12/26 14:40:33;;;;;;;6.68;1.10;;;;;;;;;;4977099;28;20053;-67
2023/12/26 14:43:17;;;;;;;5.65;1.17;;;;;;;;;;4977058;28;20047;-67
2023/12/26 14:46:02;;;;;;;4.95;1.15;;;;;;;;;;4977161;28;20047;-67
2023/12/26 14:48:47;;;;;;;5.40;0.80;;;;;;;;;;4977272;28;20263;-67
2023/12/26 14:51:31;;;;;;;7.25;1.08;;;;;;;;;;4976973;28;20138;-67
2023/12/26 14:54:16;;;;;;;7.57;1.23;;;;;;;;;;4977287;28;20426;-67
2023/12/26 14:57:01;;;;;;;5.13;0.85;;;;;;;;;;4975735;28;20413;-67
2023/12/26 14:59:45;;;;;;;9.68;1.48;;;;;;;;;;4976850;28;20038;-67
2023/12/26 15:02:12;;;;;;;6.07;1.08;;;;;;;;;;4975607;28;20435;-67
2023/12/26 15:04:38;;;;;;;8.00;1.38;;;;;;;;;;4976904;28;20518;-67
2023/12/26 15:07:05;;;;;;;7.70;1.08;;;;;;;;;;4976648;28;20129;-67
2023/12/26 15:09:31;;;;;;;9.05;0.70;;;;;;;;;;4976906;28;20047;-67
2023/12/26 15:11:57;;;;;;;5.63;0.93;;;;;;;;;;4977155;28;20074;-67
2023/12/26 15:14:23;;;;;;;4.65;0.90;;;;;;;;;;4976864;28;20078;-67
2023/12/26 15:16:49;;;;;;;7.25;1.00;;;;;;;;;;4977019;28;20050;-67
2023/12/26 15:19:16;;;;;;;7.85;0.95;;;;;;;;;;4968014;28;20046;-67
2023/12/26 15:21:43;;;;;;;6.95;0.90;;;;;;;;;;4957204;28;20043;-67
2023/12/26 15:24:13;;;;;;;7.13;1.10;;;;;;;;;;4957802;28;20437;-67
2023/12/26 15:26:39;;;;;;;6.05;0.80;;;;;;;;;;4971774;28;20118;-67
2023/12/26 15:29:05;;;;;;;9.07;1.10;;;;;;;;;;4976557;28;20039;-67
2023/12/26 15:31:34;;;;;;;5.35;1.00;;;;;;;;;;5011355;28;20061;-67
2023/12/26 15:34:01;;;;;;;7.90;1.33;;;;;;;;;;5016139;28;20100;-67
2023/12/26 15:36:27;;;;;;;8.50;1.30;;;;;;;;;;5015669;28;20042;-67
2023/12/26 15:38:54;;;;;;;8.02;1.42;;;;;;;;;;5015599;28;20045;-67
2023/12/26 15:41:20;;;;;;;8.55;1.80;;;;;;;;;;5012922;28;20129;-67
2023/12/26 15:43:46;;;;;;;10.50;1.30;;;;;;;;;;5012368;28;20464;-67
2023/12/26 15:46:19;;;;;;;8.18;1.45;;;;;;;;;;5012465;28;20048;-67
2023/12/26 15:48:46;;;;;;;9.07;1.92;;;;;;;;;;5012547;28;20193;-67
2023/12/26 15:51:13;;;;;;;6.38;1.10;;;;;;;;;;5012251;28;20056;-67
2023/12/26 15:53:43;;;;;;;8.32;1.27;;;;;;;;;;5012635;28;20041;-67
2023/12/26 15:56:10;;;;;;;7.53;1.48;;;;;;;;;;5012624;28;20412;-67
2023/12/26 15:58:36;;;;;;;11.63;1.30;;;;;;;;;;5012079;28;20045;-67
2023/12/26 16:01:02;;;;;;;5.40;1.02;;;;;;;;;;5010836;28;20156;-67
2023/12/26 16:03:28;;;;;;;7.72;1.92;;;;;;;;;;5012193;28;20099;-67
2023/12/26 16:05:54;;;;;;;8.32;1.58;;;;;;;;;;5012051;28;20431;-67
2023/12/26 16:08:21;;;;;;;8.98;1.65;;;;;;;;;;5010638;28;20099;-67
2023/12/26 16:10:53;;;;;;;10.55;1.52;;;;;;;;;;5012195;28;20053;-67
2023/12/26 16:13:20;;;;;;;6.28;1.30;;;;;;;;;;5011768;28;20042;-67
2023/12/26 16:15:47;;;;;;;6.45;1.40;;;;;;;;;;5011980;28;20049;-67
2023/12/26 16:18:13;;;;;;;7.13;1.25;;;;;;;;;;5009987;28;20038;-67
2023/12/26 16:20:39;;;;;;;7.32;1.13;;;;;;;;;;4990681;28;20050;-67
2023/12/26 16:23:08;;;;;;;16.42;2.17;;;;;;;;;;4991249;28;20042;-67
2023/12/26 16:25:35;;;;;;;10.13;1.73;;;;;;;;;;4996905;28;20045;-67
2023/12/26 16:28:01;;;;;;;6.72;1.25;;;;;;;;;;5011443;28;20074;-67
2023/12/26 16:30:27;;;;;;;8.35;1.60;;;;;;;;;;5011554;28;20074;-67
2023/12/26 16:32:53;;;;;;;12.32;1.50;;;;;;;;;;5012147;28;20051;-67
2023/12/26 16:35:19;;;;;;;10.50;1.38;;;;;;;;;;5011731;28;20080;-67
2023/12/26 16:37:45;;;;;;;8.65;1.80;;;;;;;;;;5011696;28;20046;-67
2023/12/26 16:40:12;;;;;;;10.90;1.90;;;;;;;;;;5010137;28;20444;-67
2023/12/26 16:42:38;;;;;;;12.30;1.73;;;;;;;;;;5011287;28;20041;-67
2023/12/26 16:45:04;;;;;;;9.82;2.50;;;;;;;;;;5010437;28;20492;-67
2023/12/26 16:47:30;;;;;;;8.75;1.80;;;;;;;;;;5011550;28;20042;-67
2023/12/26 16:49:58;;;;;;;12.07;1.98;;;;;;;;;;5010855;28;20045;-67
2023/12/26 16:52:24;;;;;;;17.02;2.47;;;;;;;;;;5010996;28;20452;-67
2023/12/26 16:54:51;;;;;;;12.20;2.08;;;;;;;;;;5011593;28;20041;-67
2023/12/26 16:57:17;;;;;;;17.10;2.05;;;;;;;;;;5010945;28;20042;-67
2023/12/26 16:59:45;;;;;;;13.73;2.10;;;;;;;;;;5011312;28;20045;-67
2023/12/26 17:02:11;;;;;;;15.68;2.70;;;;;;;;;;5010022;28;20080;-67
2023/12/26 17:04:38;;;;;;;10.23;1.85;;;;;;;;;;5010987;28;20056;-67
2023/12/26 17:07:04;;;;;;;13.68;2.00;;;;;;;;;;5011158;28;20108;-67
2023/12/26 17:09:30;;;;;;;13.60;1.80;;;;;;;;;;5010921;28;20204;-67
2023/12/26 17:11:56;;;;;;;16.50;1.83;;;;;;;;;;5010765;28;20382;-67
2023/12/26 17:14:23;;;;;;;11.52;1.55;;;;;;;;;;5011141;28;20049;-67
2023/12/26 17:16:49;;;;;;;14.95;1.85;;;;;;;;;;5011128;28;20046;-67
2023/12/26 17:19:15;;;;;;;10.15;1.77;;;;;;;;;;5001331;28;20038;-67
2023/12/26 17:21:42;;;;;;;13.90;2.03;;;;;;;;;;4991562;28;20046;-67
2023/12/26 17:24:08;;;;;;;13.30;1.98;;;;;;;;;;4991397;28;20509;-67
2023/12/26 17:26:34;;;;;;;10.70;2.20;;;;;;;;;;5004640;28;20316;-67
2023/12/26 17:29:00;;;;;;;6.82;1.98;;;;;;;;;;5010787;28;20453;-67
2023/12/26 17:31:26;;;;;;;10.40;2.10;;;;;;;;;;5010439;28;20145;-67
2023/12/26 17:33:52;;;;;;;12.52;2.05;;;;;;;;;;5010431;28;20050;-67